sensor_id;sensor_type;location;lat;lon;timestamp;temperature;humidity
63047;DHT22;62025;39.238;9.126;2023-07-30T00:00:21;28.40;75.40
63047;DHT22;62025;39.238;9.126;2023-07-30T00:02:47;28.40;75.40
63047;DHT22;62025;39.238;9.126;2023-07-30T00:05:13;28.30;75.60
63047;DHT22;62025;39.238;9.126;2023-07-30T00:07:39;28.40;75.30
63047;DHT22;62025;39.238;9.126;2023-07-30T00:10:06;28.40;75.20
63047;DHT22;62025;39.238;9.126;2023-07-30T00:12:32;28.20;75.50
63047;DHT22;62025;39.238;9.126;2023-07-30T00:14:58;28.20;75.60
63047;DHT22;62025;39.238;9.126;2023-07-30T00:17:24;28.20;75.60
63047;DHT22;62025;39.238;9.126;2023-07-30T00:19:50;28.10;76.00
63047;DHT22;62025;39.238;9.126;2023-07-30T00:22:16;28.10;75.60
63047;DHT22;62025;39.238;9.126;2023-07-30T00:24:42;28.20;75.40
63047;DHT22;62025;39.238;9.126;2023-07-30T00:27:08;28.30;75.20
63047;DHT22;62025;39.238;9.126;2023-07-30T00:29:34;28.30;75.10
63047;DHT22;62025;39.238;9.126;2023-07-30T00:32:00;28.20;75.10
63047;DHT22;62025;39.238;9.126;2023-07-30T00:34:26;28.20;75.10
63047;DHT22;62025;39.238;9.126;2023-07-30T00:36:52;28.20;74.90
63047;DHT22;62025;39.238;9.126;2023-07-30T00:39:18;28.30;74.80
63047;DHT22;62025;39.238;9.126;2023-07-30T00:41:43;28.20;74.80
63047;DHT22;62025;39.238;9.126;2023-07-30T00:44:11;28.20;74.70
63047;DHT22;62025;39.238;9.126;2023-07-30T00:46:37;28.20;74.60
63047;DHT22;62025;39.238;9.126;2023-07-30T00:49:03;28.20;74.60
63047;DHT22;62025;39.238;9.126;2023-07-30T00:51:31;28.20;74.60
63047;DHT22;62025;39.238;9.126;2023-07-30T00:53:59;28.20;74.80
63047;DHT22;62025;39.238;9.126;2023-07-30T00:56:26;28.20;74.80
63047;DHT22;62025;39.238;9.126;2023-07-30T00:58:53;28.20;74.80
63047;DHT22;62025;39.238;9.126;2023-07-30T01:01:19;28.10;74.80
63047;DHT22;62025;39.238;9.126;2023-07-30T01:03:46;28.00;74.80
63047;DHT22;62025;39.238;9.126;2023-07-30T01:06:13;28.00;74.70
63047;DHT22;62025;39.238;9.126;2023-07-30T01:08:39;28.00;74.60
63047;DHT22;62025;39.238;9.126;2023-07-30T01:11:07;28.00;74.40
63047;DHT22;62025;39.238;9.126;2023-07-30T01:13:34;27.90;74.20
63047;DHT22;62025;39.238;9.126;2023-07-30T01:16:01;27.90;74.20
63047;DHT22;62025;39.238;9.126;2023-07-30T01:18:29;27.90;74.20
63047;DHT22;62025;39.238;9.126;2023-07-30T01:20:58;27.90;74.10
63047;DHT22;62025;39.238;9.126;2023-07-30T01:23:25;27.90;74.20
63047;DHT22;62025;39.238;9.126;2023-07-30T01:26:22;27.90;74.20
63047;DHT22;62025;39.238;9.126;2023-07-30T01:28:54;27.80;74.30
63047;DHT22;62025;39.238;9.126;2023-07-30T01:31:22;27.80;74.40
63047;DHT22;62025;39.238;9.126;2023-07-30T01:33:52;27.80;74.50
63047;DHT22;62025;39.238;9.126;2023-07-30T01:36:21;27.90;74.30
63047;DHT22;62025;39.238;9.126;2023-07-30T01:38:49;27.90;74.00
63047;DHT22;62025;39.238;9.126;2023-07-30T01:41:16;27.90;73.60
63047;DHT22;62025;39.238;9.126;2023-07-30T01:43:42;28.00;73.20
63047;DHT22;62025;39.238;9.126;2023-07-30T01:46:08;28.00;72.90
63047;DHT22;62025;39.238;9.126;2023-07-30T01:48:34;27.90;72.70
63047;DHT22;62025;39.238;9.126;2023-07-30T01:51:00;27.90;72.50
63047;DHT22;62025;39.238;9.126;2023-07-30T01:53:25;27.90;72.40
63047;DHT22;62025;39.238;9.126;2023-07-30T01:55:51;27.90;72.50
63047;DHT22;62025;39.238;9.126;2023-07-30T01:58:17;27.90;72.40
63047;DHT22;62025;39.238;9.126;2023-07-30T02:00:44;27.90;72.40
63047;DHT22;62025;39.238;9.126;2023-07-30T02:03:10;27.90;72.30
63047;DHT22;62025;39.238;9.126;2023-07-30T02:05:36;27.90;72.40
63047;DHT22;62025;39.238;9.126;2023-07-30T02:08:02;27.90;72.30
63047;DHT22;62025;39.238;9.126;2023-07-30T02:10:30;27.90;72.50
63047;DHT22;62025;39.238;9.126;2023-07-30T02:12:56;27.80;72.60
63047;DHT22;62025;39.238;9.126;2023-07-30T02:15:22;27.90;72.50
63047;DHT22;62025;39.238;9.126;2023-07-30T02:17:48;27.90;72.50
63047;DHT22;62025;39.238;9.126;2023-07-30T02:20:14;27.80;72.50
63047;DHT22;62025;39.238;9.126;2023-07-30T02:22:40;27.80;72.40
63047;DHT22;62025;39.238;9.126;2023-07-30T02:25:06;27.80;72.20
63047;DHT22;62025;39.238;9.126;2023-07-30T02:27:32;27.80;72.30
63047;DHT22;62025;39.238;9.126;2023-07-30T02:29:58;27.70;72.50
63047;DHT22;62025;39.238;9.126;2023-07-30T02:32:24;27.70;72.60
63047;DHT22;62025;39.238;9.126;2023-07-30T02:34:50;27.70;72.40
63047;DHT22;62025;39.238;9.126;2023-07-30T02:37:16;27.70;72.40
63047;DHT22;62025;39.238;9.126;2023-07-30T02:39:42;27.60;72.50
63047;DHT22;62025;39.238;9.126;2023-07-30T02:42:08;27.60;72.50
63047;DHT22;62025;39.238;9.126;2023-07-30T02:44:34;27.60;72.30
63047;DHT22;62025;39.238;9.126;2023-07-30T02:47:00;27.60;72.10
63047;DHT22;62025;39.238;9.126;2023-07-30T02:49:26;27.50;72.00
63047;DHT22;62025;39.238;9.126;2023-07-30T02:51:52;27.40;71.80
63047;DHT22;62025;39.238;9.126;2023-07-30T02:54:18;27.40;71.50
63047;DHT22;62025;39.238;9.126;2023-07-30T02:56:46;27.40;71.50
63047;DHT22;62025;39.238;9.126;2023-07-30T02:59:12;27.40;71.40
63047;DHT22;62025;39.238;9.126;2023-07-30T03:01:38;27.40;71.20
63047;DHT22;62025;39.238;9.126;2023-07-30T03:04:07;27.40;71.10
63047;DHT22;62025;39.238;9.126;2023-07-30T03:06:33;27.30;71.00
63047;DHT22;62025;39.238;9.126;2023-07-30T03:08:59;27.30;71.20
63047;DHT22;62025;39.238;9.126;2023-07-30T03:11:25;27.40;71.10
63047;DHT22;62025;39.238;9.126;2023-07-30T03:13:51;27.30;71.10
63047;DHT22;62025;39.238;9.126;2023-07-30T03:16:17;27.30;71.10
63047;DHT22;62025;39.238;9.126;2023-07-30T03:18:43;27.30;71.10
63047;DHT22;62025;39.238;9.126;2023-07-30T03:21:09;27.30;71.00
63047;DHT22;62025;39.238;9.126;2023-07-30T03:23:35;27.30;70.80
63047;DHT22;62025;39.238;9.126;2023-07-30T03:26:01;27.20;70.80
63047;DHT22;62025;39.238;9.126;2023-07-30T03:28:27;27.20;70.80
63047;DHT22;62025;39.238;9.126;2023-07-30T03:30:53;27.20;70.70
63047;DHT22;62025;39.238;9.126;2023-07-30T03:33:20;27.20;70.70
63047;DHT22;62025;39.238;9.126;2023-07-30T03:35:46;27.20;70.80
63047;DHT22;62025;39.238;9.126;2023-07-30T03:38:12;27.10;70.80
63047;DHT22;62025;39.238;9.126;2023-07-30T03:40:38;27.10;71.00
63047;DHT22;62025;39.238;9.126;2023-07-30T03:43:04;27.10;71.10
63047;DHT22;62025;39.238;9.126;2023-07-30T03:45:30;27.10;71.30
63047;DHT22;62025;39.238;9.126;2023-07-30T03:47:55;27.10;71.60
63047;DHT22;62025;39.238;9.126;2023-07-30T03:50:21;27.10;71.80
63047;DHT22;62025;39.238;9.126;2023-07-30T03:52:47;27.10;72.10
63047;DHT22;62025;39.238;9.126;2023-07-30T03:55:13;27.10;72.20
63047;DHT22;62025;39.238;9.126;2023-07-30T03:57:39;27.10;72.50
63047;DHT22;62025;39.238;9.126;2023-07-30T04:00:06;27.10;72.60
63047;DHT22;62025;39.238;9.126;2023-07-30T04:02:39;27.10;72.70
63047;DHT22;62025;39.238;9.126;2023-07-30T04:05:06;27.10;73.00
63047;DHT22;62025;39.238;9.126;2023-07-30T04:07:32;27.00;73.10
63047;DHT22;62025;39.238;9.126;2023-07-30T04:09:58;27.10;73.20
63047;DHT22;62025;39.238;9.126;2023-07-30T04:12:24;27.00;73.40
63047;DHT22;62025;39.238;9.126;2023-07-30T04:14:50;27.00;73.50
63047;DHT22;62025;39.238;9.126;2023-07-30T04:17:16;27.00;73.70
63047;DHT22;62025;39.238;9.126;2023-07-30T04:19:42;26.90;73.90
63047;DHT22;62025;39.238;9.126;2023-07-30T04:22:08;27.00;74.00
63047;DHT22;62025;39.238;9.126;2023-07-30T04:24:34;27.00;74.00
63047;DHT22;62025;39.238;9.126;2023-07-30T04:27:00;26.90;74.00
63047;DHT22;62025;39.238;9.126;2023-07-30T04:29:26;26.90;73.90
63047;DHT22;62025;39.238;9.126;2023-07-30T04:31:52;27.00;73.60
63047;DHT22;62025;39.238;9.126;2023-07-30T04:34:18;26.90;73.50
63047;DHT22;62025;39.238;9.126;2023-07-30T04:36:44;26.90;73.50
63047;DHT22;62025;39.238;9.126;2023-07-30T04:39:11;26.90;73.40
63047;DHT22;62025;39.238;9.126;2023-07-30T04:41:39;26.90;73.50
63047;DHT22;62025;39.238;9.126;2023-07-30T04:44:05;26.90;73.50
63047;DHT22;62025;39.238;9.126;2023-07-30T04:46:31;26.90;73.50
63047;DHT22;62025;39.238;9.126;2023-07-30T04:49:02;26.90;73.40
63047;DHT22;62025;39.238;9.126;2023-07-30T04:51:30;26.90;73.20
63047;DHT22;62025;39.238;9.126;2023-07-30T04:53:56;26.90;73.00
63047;DHT22;62025;39.238;9.126;2023-07-30T04:56:22;26.90;72.70
63047;DHT22;62025;39.238;9.126;2023-07-30T04:58:50;26.90;72.30
63047;DHT22;62025;39.238;9.126;2023-07-30T05:01:16;26.90;72.00
63047;DHT22;62025;39.238;9.126;2023-07-30T05:03:42;26.90;71.70
63047;DHT22;62025;39.238;9.126;2023-07-30T05:06:08;26.90;71.30
63047;DHT22;62025;39.238;9.126;2023-07-30T05:08:34;26.90;70.70
63047;DHT22;62025;39.238;9.126;2023-07-30T05:10:59;26.90;70.50
63047;DHT22;62025;39.238;9.126;2023-07-30T05:13:25;26.90;70.10
63047;DHT22;62025;39.238;9.126;2023-07-30T05:15:51;26.90;69.60
63047;DHT22;62025;39.238;9.126;2023-07-30T05:18:17;26.90;69.00
63047;DHT22;62025;39.238;9.126;2023-07-30T05:20:46;27.00;68.70
63047;DHT22;62025;39.238;9.126;2023-07-30T05:23:12;27.00;68.40
63047;DHT22;62025;39.238;9.126;2023-07-30T05:25:38;27.20;67.70
63047;DHT22;62025;39.238;9.126;2023-07-30T05:28:04;27.20;67.30
63047;DHT22;62025;39.238;9.126;2023-07-30T05:30:30;27.40;66.70
63047;DHT22;62025;39.238;9.126;2023-07-30T05:32:56;27.60;65.90
63047;DHT22;62025;39.238;9.126;2023-07-30T05:35:22;27.70;65.70
63047;DHT22;62025;39.238;9.126;2023-07-30T05:37:48;27.70;65.30
63047;DHT22;62025;39.238;9.126;2023-07-30T05:40:14;27.70;65.10
63047;DHT22;62025;39.238;9.126;2023-07-30T05:42:40;27.80;65.10
63047;DHT22;62025;39.238;9.126;2023-07-30T05:45:06;27.80;64.60
63047;DHT22;62025;39.238;9.126;2023-07-30T05:47:33;27.90;64.30
63047;DHT22;62025;39.238;9.126;2023-07-30T05:49:59;27.90;64.20
63047;DHT22;62025;39.238;9.126;2023-07-30T05:52:25;28.00;63.70
63047;DHT22;62025;39.238;9.126;2023-07-30T05:54:51;28.00;63.70
63047;DHT22;62025;39.238;9.126;2023-07-30T05:57:17;28.10;63.20
63047;DHT22;62025;39.238;9.126;2023-07-30T05:59:43;28.20;63.40
63047;DHT22;62025;39.238;9.126;2023-07-30T06:02:09;28.30;63.30
63047;DHT22;62025;39.238;9.126;2023-07-30T06:04:35;28.30;63.10
63047;DHT22;62025;39.238;9.126;2023-07-30T06:07:02;28.40;63.20
63047;DHT22;62025;39.238;9.126;2023-07-30T06:09:29;28.40;62.90
63047;DHT22;62025;39.238;9.126;2023-07-30T06:11:56;28.40;62.60
63047;DHT22;62025;39.238;9.126;2023-07-30T06:14:26;28.40;62.50
63047;DHT22;62025;39.238;9.126;2023-07-30T06:16:53;28.50;62.40
63047;DHT22;62025;39.238;9.126;2023-07-30T06:19:19;28.60;62.10
63047;DHT22;62025;39.238;9.126;2023-07-30T06:21:46;28.70;62.00
63047;DHT22;62025;39.238;9.126;2023-07-30T06:24:12;28.70;61.80
63047;DHT22;62025;39.238;9.126;2023-07-30T06:26:38;28.90;61.30
63047;DHT22;62025;39.238;9.126;2023-07-30T06:29:04;28.90;60.80
63047;DHT22;62025;39.238;9.126;2023-07-30T06:31:30;29.00;60.30
63047;DHT22;62025;39.238;9.126;2023-07-30T06:33:55;29.10;59.50
63047;DHT22;62025;39.238;9.126;2023-07-30T06:36:21;29.10;59.30
63047;DHT22;62025;39.238;9.126;2023-07-30T06:38:47;29.20;58.30
63047;DHT22;62025;39.238;9.126;2023-07-30T06:41:13;29.20;58.40
63047;DHT22;62025;39.238;9.126;2023-07-30T06:43:39;29.30;58.20
63047;DHT22;62025;39.238;9.126;2023-07-30T06:46:05;29.30;56.60
63047;DHT22;62025;39.238;9.126;2023-07-30T06:48:31;29.40;56.60
63047;DHT22;62025;39.238;9.126;2023-07-30T06:50:57;29.40;56.00
63047;DHT22;62025;39.238;9.126;2023-07-30T06:53:23;29.60;55.30
63047;DHT22;62025;39.238;9.126;2023-07-30T06:55:49;29.60;55.30
63047;DHT22;62025;39.238;9.126;2023-07-30T06:58:15;29.70;54.80
63047;DHT22;62025;39.238;9.126;2023-07-30T07:00:41;29.80;54.70
63047;DHT22;62025;39.238;9.126;2023-07-30T07:03:07;30.00;54.50
63047;DHT22;62025;39.238;9.126;2023-07-30T07:05:34;30.10;54.40
63047;DHT22;62025;39.238;9.126;2023-07-30T07:08:00;30.20;54.30
63047;DHT22;62025;39.238;9.126;2023-07-30T07:10:26;30.20;53.50
63047;DHT22;62025;39.238;9.126;2023-07-30T07:12:52;30.30;52.80
63047;DHT22;62025;39.238;9.126;2023-07-30T07:15:18;30.40;52.40
63047;DHT22;62025;39.238;9.126;2023-07-30T07:17:44;30.50;52.40
63047;DHT22;62025;39.238;9.126;2023-07-30T07:20:10;30.70;51.60
63047;DHT22;62025;39.238;9.126;2023-07-30T07:22:37;30.90;50.80
63047;DHT22;62025;39.238;9.126;2023-07-30T07:25:03;30.90;50.50
63047;DHT22;62025;39.238;9.126;2023-07-30T07:27:29;31.00;50.20
63047;DHT22;62025;39.238;9.126;2023-07-30T07:29:55;31.10;49.10
63047;DHT22;62025;39.238;9.126;2023-07-30T07:32:21;31.30;48.60
63047;DHT22;62025;39.238;9.126;2023-07-30T07:34:48;31.40;48.20
63047;DHT22;62025;39.238;9.126;2023-07-30T07:37:15;31.40;47.80
63047;DHT22;62025;39.238;9.126;2023-07-30T07:39:42;31.50;47.50
63047;DHT22;62025;39.238;9.126;2023-07-30T07:42:11;31.50;46.90
63047;DHT22;62025;39.238;9.126;2023-07-30T07:44:37;31.70;46.30
63047;DHT22;62025;39.238;9.126;2023-07-30T07:47:04;31.90;45.60
63047;DHT22;62025;39.238;9.126;2023-07-30T07:49:30;31.90;44.50
63047;DHT22;62025;39.238;9.126;2023-07-30T07:51:56;32.00;44.20
63047;DHT22;62025;39.238;9.126;2023-07-30T07:54:22;32.10;43.10
63047;DHT22;62025;39.238;9.126;2023-07-30T07:56:48;32.20;42.80
63047;DHT22;62025;39.238;9.126;2023-07-30T07:59:13;32.30;42.70
63047;DHT22;62025;39.238;9.126;2023-07-30T08:01:39;32.40;42.70
63047;DHT22;62025;39.238;9.126;2023-07-30T08:04:05;32.60;41.80
63047;DHT22;62025;39.238;9.126;2023-07-30T08:06:32;32.50;41.30
63047;DHT22;62025;39.238;9.126;2023-07-30T08:08:58;32.60;41.60
63047;DHT22;62025;39.238;9.126;2023-07-30T08:11:24;32.70;41.30
63047;DHT22;62025;39.238;9.126;2023-07-30T08:13:50;33.10;40.70
63047;DHT22;62025;39.238;9.126;2023-07-30T08:16:16;33.20;40.20
63047;DHT22;62025;39.238;9.126;2023-07-30T08:18:42;33.10;39.90
63047;DHT22;62025;39.238;9.126;2023-07-30T08:21:08;33.30;39.80
63047;DHT22;62025;39.238;9.126;2023-07-30T08:23:34;33.40;39.10
63047;DHT22;62025;39.238;9.126;2023-07-30T08:26:00;33.50;39.50
63047;DHT22;62025;39.238;9.126;2023-07-30T08:28:26;33.60;39.30
63047;DHT22;62025;39.238;9.126;2023-07-30T08:30:52;33.80;38.70
63047;DHT22;62025;39.238;9.126;2023-07-30T08:33:18;34.00;38.10
63047;DHT22;62025;39.238;9.126;2023-07-30T08:35:44;34.10;38.10
63047;DHT22;62025;39.238;9.126;2023-07-30T08:38:10;34.00;37.90
63047;DHT22;62025;39.238;9.126;2023-07-30T08:40:35;34.10;37.60
63047;DHT22;62025;39.238;9.126;2023-07-30T08:43:02;34.20;37.50
63047;DHT22;62025;39.238;9.126;2023-07-30T08:45:30;34.30;36.80
63047;DHT22;62025;39.238;9.126;2023-07-30T08:47:56;34.30;36.70
63047;DHT22;62025;39.238;9.126;2023-07-30T08:50:22;34.80;36.10
63047;DHT22;62025;39.238;9.126;2023-07-30T08:52:49;35.00;35.20
63047;DHT22;62025;39.238;9.126;2023-07-30T08:55:15;35.00;35.20
63047;DHT22;62025;39.238;9.126;2023-07-30T08:57:43;34.80;35.10
63047;DHT22;62025;39.238;9.126;2023-07-30T09:00:11;34.50;35.00
63047;DHT22;62025;39.238;9.126;2023-07-30T09:02:41;35.00;34.10
63047;DHT22;62025;39.238;9.126;2023-07-30T09:05:10;35.40;33.50
63047;DHT22;62025;39.238;9.126;2023-07-30T09:07:36;35.70;32.90
63047;DHT22;62025;39.238;9.126;2023-07-30T09:10:02;35.70;32.80
63047;DHT22;62025;39.238;9.126;2023-07-30T09:12:33;35.50;32.80
63047;DHT22;62025;39.238;9.126;2023-07-30T09:14:59;35.70;31.80
63047;DHT22;62025;39.238;9.126;2023-07-30T09:17:25;35.90;31.30
63047;DHT22;62025;39.238;9.126;2023-07-30T09:19:52;35.90;31.30
63047;DHT22;62025;39.238;9.126;2023-07-30T09:22:36;35.40;31.20
63047;DHT22;62025;39.238;9.126;2023-07-30T09:25:05;34.70;32.40
63047;DHT22;62025;39.238;9.126;2023-07-30T09:27:32;35.00;32.20
63047;DHT22;62025;39.238;9.126;2023-07-30T09:30:00;35.40;31.50
63047;DHT22;62025;39.238;9.126;2023-07-30T09:32:32;35.50;31.60
63047;DHT22;62025;39.238;9.126;2023-07-30T09:35:10;36.00;31.70
63047;DHT22;62025;39.238;9.126;2023-07-30T09:37:41;36.30;31.70
63047;DHT22;62025;39.238;9.126;2023-07-30T09:40:16;36.00;31.70
63047;DHT22;62025;39.238;9.126;2023-07-30T09:42:45;35.50;35.00
63047;DHT22;62025;39.238;9.126;2023-07-30T09:45:23;34.90;36.50
63047;DHT22;62025;39.238;9.126;2023-07-30T09:47:53;34.90;37.30
63047;DHT22;62025;39.238;9.126;2023-07-30T09:50:19;34.50;39.70
63047;DHT22;62025;39.238;9.126;2023-07-30T09:52:46;34.10;42.50
63047;DHT22;62025;39.238;9.126;2023-07-30T09:55:12;33.80;44.50
63047;DHT22;62025;39.238;9.126;2023-07-30T09:57:38;33.50;45.20
63047;DHT22;62025;39.238;9.126;2023-07-30T10:00:06;33.90;45.10
63047;DHT22;62025;39.238;9.126;2023-07-30T10:02:39;34.20;44.70
63047;DHT22;62025;39.238;9.126;2023-07-30T10:05:14;34.40;44.70
63047;DHT22;62025;39.238;9.126;2023-07-30T10:08:19;34.50;44.80
63047;DHT22;62025;39.238;9.126;2023-07-30T10:10:37;33.80;45.70
63047;DHT22;62025;39.238;9.126;2023-07-30T10:13:07;33.40;46.00
63047;DHT22;62025;39.238;9.126;2023-07-30T10:15:35;33.10;46.50
63047;DHT22;62025;39.238;9.126;2023-07-30T10:18:03;32.80;46.20
63047;DHT22;62025;39.238;9.126;2023-07-30T10:20:30;32.70;45.80
63047;DHT22;62025;39.238;9.126;2023-07-30T10:22:59;33.00;46.80
63047;DHT22;62025;39.238;9.126;2023-07-30T10:25:53;33.00;48.30
63047;DHT22;62025;39.238;9.126;2023-07-30T10:31:01;33.20;48.50
63047;DHT22;62025;39.238;9.126;2023-07-30T10:36:10;32.50;50.10
63047;DHT22;62025;39.238;9.126;2023-07-30T10:38:36;32.50;49.70
63047;DHT22;62025;39.238;9.126;2023-07-30T10:41:10;32.40;48.70
63047;DHT22;62025;39.238;9.126;2023-07-30T10:43:50;32.30;47.30
63047;DHT22;62025;39.238;9.126;2023-07-30T10:46:18;32.10;48.80
63047;DHT22;62025;39.238;9.126;2023-07-30T10:48:45;32.20;48.70
63047;DHT22;62025;39.238;9.126;2023-07-30T10:51:14;32.20;48.80
63047;DHT22;62025;39.238;9.126;2023-07-30T10:53:48;32.30;47.30
63047;DHT22;62025;39.238;9.126;2023-07-30T10:56:23;32.40;46.70
63047;DHT22;62025;39.238;9.126;2023-07-30T10:58:54;32.70;46.30
63047;DHT22;62025;39.238;9.126;2023-07-30T11:01:23;32.40;44.90
63047;DHT22;62025;39.238;9.126;2023-07-30T11:03:50;32.50;45.60
63047;DHT22;62025;39.238;9.126;2023-07-30T11:06:25;32.50;45.20
63047;DHT22;62025;39.238;9.126;2023-07-30T11:08:52;32.60;45.60
63047;DHT22;62025;39.238;9.126;2023-07-30T11:11:18;32.50;46.80
63047;DHT22;62025;39.238;9.126;2023-07-30T11:13:46;32.60;45.40
63047;DHT22;62025;39.238;9.126;2023-07-30T11:16:13;32.30;47.20
63047;DHT22;62025;39.238;9.126;2023-07-30T11:18:40;32.20;48.60
63047;DHT22;62025;39.238;9.126;2023-07-30T11:21:08;32.20;48.80
63047;DHT22;62025;39.238;9.126;2023-07-30T11:23:40;32.10;49.40
63047;DHT22;62025;39.238;9.126;2023-07-30T11:26:09;31.60;50.90
63047;DHT22;62025;39.238;9.126;2023-07-30T11:28:40;31.60;51.40
63047;DHT22;62025;39.238;9.126;2023-07-30T11:31:40;31.50;50.70
63047;DHT22;62025;39.238;9.126;2023-07-30T11:33:59;31.70;50.80
63047;DHT22;62025;39.238;9.126;2023-07-30T11:36:25;32.10;50.00
63047;DHT22;62025;39.238;9.126;2023-07-30T11:38:51;32.00;49.80
63047;DHT22;62025;39.238;9.126;2023-07-30T11:41:19;32.20;49.70
63047;DHT22;62025;39.238;9.126;2023-07-30T11:43:47;32.40;50.10
63047;DHT22;62025;39.238;9.126;2023-07-30T11:46:15;32.40;50.50
63047;DHT22;62025;39.238;9.126;2023-07-30T11:48:44;32.40;50.60
63047;DHT22;62025;39.238;9.126;2023-07-30T11:51:28;32.10;51.30
63047;DHT22;62025;39.238;9.126;2023-07-30T11:53:59;32.10;51.20
63047;DHT22;62025;39.238;9.126;2023-07-30T11:56:28;31.70;52.20
63047;DHT22;62025;39.238;9.126;2023-07-30T11:59:04;31.80;51.60
63047;DHT22;62025;39.238;9.126;2023-07-30T12:01:32;32.10;50.70
63047;DHT22;62025;39.238;9.126;2023-07-30T12:04:01;32.40;49.70
63047;DHT22;62025;39.238;9.126;2023-07-30T12:06:43;32.50;49.40
63047;DHT22;62025;39.238;9.126;2023-07-30T12:09:15;32.40;49.80
63047;DHT22;62025;39.238;9.126;2023-07-30T12:11:59;32.70;48.40
63047;DHT22;62025;39.238;9.126;2023-07-30T12:14:42;32.60;47.30
63047;DHT22;62025;39.238;9.126;2023-07-30T12:17:14;32.40;47.00
63047;DHT22;62025;39.238;9.126;2023-07-30T12:19:41;32.50;47.30
63047;DHT22;62025;39.238;9.126;2023-07-30T12:22:07;32.50;46.90
63047;DHT22;62025;39.238;9.126;2023-07-30T12:24:33;32.60;46.60
63047;DHT22;62025;39.238;9.126;2023-07-30T12:26:59;32.90;46.00
63047;DHT22;62025;39.238;9.126;2023-07-30T12:29:26;32.90;46.30
63047;DHT22;62025;39.238;9.126;2023-07-30T12:31:52;32.60;47.40
63047;DHT22;62025;39.238;9.126;2023-07-30T12:34:23;32.40;45.60
63047;DHT22;62025;39.238;9.126;2023-07-30T12:36:49;32.40;48.30
63047;DHT22;62025;39.238;9.126;2023-07-30T12:39:15;32.70;48.50
63047;DHT22;62025;39.238;9.126;2023-07-30T12:41:41;32.90;47.70
63047;DHT22;62025;39.238;9.126;2023-07-30T12:44:07;33.00;45.20
63047;DHT22;62025;39.238;9.126;2023-07-30T12:46:35;33.10;44.40
63047;DHT22;62025;39.238;9.126;2023-07-30T12:49:01;32.80;42.70
63047;DHT22;62025;39.238;9.126;2023-07-30T12:51:33;32.90;43.50
63047;DHT22;62025;39.238;9.126;2023-07-30T12:53:59;33.00;44.00
63047;DHT22;62025;39.238;9.126;2023-07-30T12:56:26;33.10;39.90
63047;DHT22;62025;39.238;9.126;2023-07-30T12:58:51;33.40;42.70
63047;DHT22;62025;39.238;9.126;2023-07-30T13:01:17;33.20;41.90
63047;DHT22;62025;39.238;9.126;2023-07-30T13:03:43;33.00;40.50
63047;DHT22;62025;39.238;9.126;2023-07-30T13:06:12;32.90;41.10
63047;DHT22;62025;39.238;9.126;2023-07-30T13:08:41;33.00;41.90
63047;DHT22;62025;39.238;9.126;2023-07-30T13:11:07;33.00;41.70
63047;DHT22;62025;39.238;9.126;2023-07-30T13:13:33;33.10;42.50
63047;DHT22;62025;39.238;9.126;2023-07-30T13:15:59;33.10;42.90
63047;DHT22;62025;39.238;9.126;2023-07-30T13:18:27;33.10;42.80
63047;DHT22;62025;39.238;9.126;2023-07-30T13:20:53;33.20;42.30
63047;DHT22;62025;39.238;9.126;2023-07-30T13:23:19;33.20;43.10
63047;DHT22;62025;39.238;9.126;2023-07-30T13:25:45;33.00;42.10
63047;DHT22;62025;39.238;9.126;2023-07-30T13:28:11;33.20;43.80
63047;DHT22;62025;39.238;9.126;2023-07-30T13:30:37;33.50;44.30
63047;DHT22;62025;39.238;9.126;2023-07-30T13:33:03;33.50;45.10
63047;DHT22;62025;39.238;9.126;2023-07-30T13:35:29;33.30;44.90
63047;DHT22;62025;39.238;9.126;2023-07-30T13:37:55;33.40;44.10
63047;DHT22;62025;39.238;9.126;2023-07-30T13:40:22;33.60;42.70
63047;DHT22;62025;39.238;9.126;2023-07-30T13:42:48;33.50;41.80
63047;DHT22;62025;39.238;9.126;2023-07-30T13:45:14;33.80;40.30
63047;DHT22;62025;39.238;9.126;2023-07-30T13:47:40;33.80;37.20
63047;DHT22;62025;39.238;9.126;2023-07-30T13:50:07;33.50;41.30
63047;DHT22;62025;39.238;9.126;2023-07-30T13:52:33;33.50;39.90
63047;DHT22;62025;39.238;9.126;2023-07-30T13:54:59;33.50;36.40
63047;DHT22;62025;39.238;9.126;2023-07-30T13:57:25;33.40;37.70
63047;DHT22;62025;39.238;9.126;2023-07-30T13:59:52;33.30;38.00
63047;DHT22;62025;39.238;9.126;2023-07-30T14:02:19;33.40;45.00
63047;DHT22;62025;39.238;9.126;2023-07-30T14:04:45;33.20;51.30
63047;DHT22;62025;39.238;9.126;2023-07-30T14:07:11;33.00;53.70
63047;DHT22;62025;39.238;9.126;2023-07-30T14:09:37;32.90;55.10
63047;DHT22;62025;39.238;9.126;2023-07-30T14:12:04;32.70;56.30
63047;DHT22;62025;39.238;9.126;2023-07-30T14:14:30;32.50;57.30
63047;DHT22;62025;39.238;9.126;2023-07-30T14:16:56;32.40;57.50
63047;DHT22;62025;39.238;9.126;2023-07-30T14:19:22;32.30;58.20
63047;DHT22;62025;39.238;9.126;2023-07-30T14:21:48;32.20;58.70
63047;DHT22;62025;39.238;9.126;2023-07-30T14:24:14;32.00;61.10
63047;DHT22;62025;39.238;9.126;2023-07-30T14:26:40;31.90;60.80
63047;DHT22;62025;39.238;9.126;2023-07-30T14:29:07;31.60;62.10
63047;DHT22;62025;39.238;9.126;2023-07-30T14:31:33;31.90;61.60
63047;DHT22;62025;39.238;9.126;2023-07-30T14:33:59;31.90;62.10
63047;DHT22;62025;39.238;9.126;2023-07-30T14:36:24;31.80;62.20
63047;DHT22;62025;39.238;9.126;2023-07-30T14:38:50;31.80;62.70
63047;DHT22;62025;39.238;9.126;2023-07-30T14:41:16;31.70;62.30
63047;DHT22;62025;39.238;9.126;2023-07-30T14:43:42;31.70;62.40
63047;DHT22;62025;39.238;9.126;2023-07-30T14:46:08;31.80;62.40
63047;DHT22;62025;39.238;9.126;2023-07-30T14:48:40;31.90;61.90
63047;DHT22;62025;39.238;9.126;2023-07-30T14:51:07;31.90;62.40
63047;DHT22;62025;39.238;9.126;2023-07-30T14:53:33;31.90;62.70
63047;DHT22;62025;39.238;9.126;2023-07-30T14:55:59;32.00;62.50
63047;DHT22;62025;39.238;9.126;2023-07-30T14:58:25;32.10;62.50
63047;DHT22;62025;39.238;9.126;2023-07-30T15:00:51;32.20;62.10
63047;DHT22;62025;39.238;9.126;2023-07-30T15:03:17;32.20;61.70
63047;DHT22;62025;39.238;9.126;2023-07-30T15:05:44;32.10;62.00
63047;DHT22;62025;39.238;9.126;2023-07-30T15:08:10;32.20;62.00
63047;DHT22;62025;39.238;9.126;2023-07-30T15:10:36;32.20;62.20
63047;DHT22;62025;39.238;9.126;2023-07-30T15:13:02;32.20;62.30
63047;DHT22;62025;39.238;9.126;2023-07-30T15:15:29;32.10;62.50
63047;DHT22;62025;39.238;9.126;2023-07-30T15:17:55;32.00;62.50
63047;DHT22;62025;39.238;9.126;2023-07-30T15:20:21;32.00;62.00
63047;DHT22;62025;39.238;9.126;2023-07-30T15:22:47;32.20;62.10
63047;DHT22;62025;39.238;9.126;2023-07-30T15:25:13;32.30;61.90
63047;DHT22;62025;39.238;9.126;2023-07-30T15:27:39;32.20;62.30
63047;DHT22;62025;39.238;9.126;2023-07-30T15:30:05;32.20;62.30
63047;DHT22;62025;39.238;9.126;2023-07-30T15:32:31;32.30;62.00
63047;DHT22;62025;39.238;9.126;2023-07-30T15:34:58;32.30;61.80